Pagrindinis puslapis
METAR-TAF:

METAR-TAF

Oro uostai :

Santjagas, Čilė

platuma: 33-23S, ilguma: 070-47W, Aukštis: 475 m

Dabartinis oras

Ataskaita buvo paskelbta 37 minutes, ne 08:00 UTC
Vėjas 3 kt iš Rytų/Pietryčių
Temperatūra 9°C
Drėgmė 66%
Slėgis 1015 hPa
Matomumas 10 km arba daugiau

METAR: SCEL 290800Z AUTO 12003KT 9999 NCD 09/03 Q1015

Laikas: 05:37 (08:37 UTC)

Prognozė

Ataskaita buvo paskelbta 4 valandos ir 37 minutes, ne 04:00 UTC
Prognozė galioja nuo 29 metu 06 UTC su 30 metu 06 UTC
Vėjas 5 kt iš Pietų/Pietryčių
Matomumas 10 km arba daugiau
nėra debesų žemiau 1500 m ir nėra kamuolinių lietaus debesų
Tapsmas
nuo 29 metu 07 UTC su 29 metu 09 UTC
Vėjas 2 kt nuo kintamojo kryptimis
Tapsmas
nuo 29 metu 16 UTC su 29 metu 18 UTC
Vėjas 12 kt iš Pietų/Pietvakarių
Tapsmas
nuo 30 metu 02 UTC su 30 metu 04 UTC
Vėjas 5 kt iš Pietų/Pietryčių

TAF: SCEL 290400Z 2906/3006 16005KT CAVOK TX24/2919Z TN09/2911Z BECMG 2907/2909 VRB02KT BECMG 2916/2918 20012KT BECMG 3002/3004 16005KT

Orai ataskaitas ir orų prognozės (METAR, TAF).

turimą stotys yra geltonos ir raudonos taškus žemėlapyje.

Perkelti pele per norėdami pamatyti stoties vardą.

Tada spustelėkite, norėdami matyti oro stebėjimo ir prognozės.

Norėdami pakeisti žemėlapį: spustelėkite ant žalios mygtukų su juodo kryžiaus žemyn,; žalią mygtuką su brūkšneliu, jei norite nutolinti; arba žalių rodyklių gretimoms žemėlapius.


METAR-TAF: